createdAt,value
2019-01-31T00:01:51.508Z,6.27
2019-01-31T00:05:29.038Z,2.03
2019-01-31T00:08:46.156Z,6.63
2019-01-31T00:12:35.114Z,3.00
2019-01-31T00:15:56.652Z,4.27
2019-01-31T00:18:38.115Z,6.10
2019-01-31T00:22:15.619Z,3.33
2019-01-31T00:24:56.736Z,5.60
2019-01-31T00:27:49.362Z,3.37
2019-01-31T00:30:47.902Z,4.37
2019-01-31T00:34:00.347Z,2.80
2019-01-31T00:37:53.622Z,1.97
2019-01-31T00:41:14.726Z,4.63
2019-01-31T00:44:27.581Z,7.53
2019-01-31T00:47:52.420Z,2.13
2019-01-31T00:50:44.768Z,3.13
2019-01-31T00:53:55.562Z,5.67
2019-01-31T00:57:17.641Z,3.43
2019-01-31T01:00:44.898Z,3.17
2019-01-31T01:04:14.062Z,7.17
2019-01-31T01:07:47.575Z,2.07
2019-01-31T01:11:12.261Z,4.23
2019-01-31T01:14:21.080Z,2.98
2019-01-31T01:17:40.974Z,3.08
2019-01-31T01:21:00.685Z,3.37
2019-01-31T01:23:56.719Z,7.42
2019-01-31T01:27:25.043Z,9.80
2019-01-31T01:30:25.202Z,6.90
2019-01-31T01:33:54.306Z,8.68
2019-01-31T01:37:10.509Z,5.53
2019-01-31T01:40:35.341Z,5.65
2019-01-31T01:43:25.501Z,5.10
2019-01-31T01:47:04.190Z,4.97
2019-01-31T01:50:02.075Z,3.50
2019-01-31T01:53:14.486Z,6.10
2019-01-31T01:56:54.839Z,10.80
2019-01-31T02:00:21.981Z,12.55
2019-01-31T02:03:31.307Z,4.97
2019-01-31T02:06:40.210Z,3.92
2019-01-31T02:09:59.473Z,2.62
2019-01-31T02:13:20.600Z,2.52
2019-01-31T02:16:42.586Z,3.45
2019-01-31T02:20:16.782Z,5.45
2019-01-31T02:23:38.904Z,3.67
2019-01-31T02:27:17.303Z,5.37
2019-01-31T02:30:48.567Z,4.97
2019-01-31T02:34:23.702Z,7.60
2019-01-31T02:37:20.489Z,5.85
2019-01-31T02:40:37.886Z,3.22
2019-01-31T02:43:51.845Z,5.62
2019-01-31T02:47:06.621Z,3.22
2019-01-31T02:50:11.554Z,5.87
2019-01-31T02:53:43.044Z,3.92
2019-01-31T02:57:15.038Z,4.47
2019-01-31T03:00:44.351Z,2.42
2019-01-31T03:04:12.165Z,7.47
2019-01-31T03:07:47.364Z,8.00
2019-01-31T03:11:10.339Z,4.05
2019-01-31T03:14:34.617Z,3.37
2019-01-31T03:18:14.420Z,7.12
2019-01-31T03:21:09.645Z,4.75
2019-01-31T03:24:35.534Z,4.17
2019-01-31T03:27:52.887Z,3.27
2019-01-31T03:31:09.392Z,6.97
2019-01-31T03:34:31.240Z,6.10
2019-01-31T03:38:06.654Z,5.25
2019-01-31T03:41:37.414Z,7.50
2019-01-31T03:45:19.530Z,10.43
2019-01-31T03:48:23.819Z,7.65
2019-01-31T03:51:33.498Z,21.75
2019-01-31T03:55:07.910Z,7.67
2019-01-31T03:58:29.644Z,6.78
2019-01-31T04:01:52.089Z,9.43
2019-01-31T04:04:32.458Z,6.40
2019-01-31T04:07:00.313Z,6.03
2019-01-31T04:09:28.520Z,4.70
2019-01-31T04:11:56.350Z,8.60
2019-01-31T04:14:27.302Z,7.60
2019-01-31T04:16:53.807Z,12.05
2019-01-31T04:19:21.648Z,3.98
2019-01-31T04:21:49.395Z,5.72
2019-01-31T04:24:17.188Z,6.42
2019-01-31T04:26:44.945Z,7.83
2019-01-31T04:29:18.082Z,6.33
2019-01-31T04:31:45.810Z,8.95
2019-01-31T04:34:13.625Z,7.40
2019-01-31T04:36:41.404Z,6.83
2019-01-31T04:39:09.575Z,5.90
2019-01-31T04:41:37.385Z,5.35
2019-01-31T04:44:05.242Z,13.53
2019-01-31T04:46:33.109Z,4.78
2019-01-31T04:49:00.894Z,6.25
2019-01-31T04:51:28.694Z,7.53
2019-01-31T04:53:56.478Z,6.70
2019-01-31T04:56:24.331Z,5.97
2019-01-31T04:58:52.618Z,5.97
2019-01-31T05:01:20.426Z,7.08
2019-01-31T05:03:48.231Z,5.35
2019-01-31T05:06:16.035Z,6.15
2019-01-31T05:08:44.081Z,5.00
2019-01-31T05:11:11.881Z,5.92
2019-01-31T05:13:39.671Z,7.20
2019-01-31T05:16:07.560Z,8.83
2019-01-31T05:18:35.379Z,14.55
2019-01-31T05:21:03.440Z,7.25
2019-01-31T05:23:31.205Z,5.90
2019-01-31T05:25:59.020Z,8.88
2019-01-31T05:28:32.112Z,20.37
2019-01-31T05:30:59.894Z,5.92
2019-01-31T05:33:27.671Z,6.17
2019-01-31T05:35:55.468Z,7.37
2019-01-31T05:38:23.264Z,6.10
2019-01-31T05:40:55.611Z,5.67
2019-01-31T05:43:20.777Z,6.35
2019-01-31T05:45:48.578Z,4.12
2019-01-31T05:48:16.858Z,7.15
2019-01-31T05:50:47.541Z,7.67
2019-01-31T05:53:15.301Z,3.72
2019-01-31T05:55:43.131Z,11.03
2019-01-31T05:58:16.323Z,11.63
2019-01-31T06:00:44.130Z,8.53
2019-01-31T06:03:19.338Z,8.30
2019-01-31T06:05:47.321Z,4.80
2019-01-31T06:08:15.098Z,8.58
2019-01-31T06:10:42.924Z,8.53
2019-01-31T06:13:10.749Z,8.58
2019-01-31T06:15:38.546Z,9.88
2019-01-31T06:18:06.291Z,7.58
2019-01-31T06:20:34.113Z,8.68
2019-01-31T06:23:01.923Z,9.50
2019-01-31T06:25:29.777Z,7.65
2019-01-31T06:27:57.771Z,9.55
2019-01-31T06:30:25.594Z,8.10
2019-01-31T06:32:53.340Z,33.23
2019-01-31T06:35:21.110Z,40.33
2019-01-31T06:37:49.181Z,25.23
2019-01-31T06:40:18.368Z,16.93
2019-01-31T06:42:46.346Z,15.00
2019-01-31T06:45:18.735Z,18.92
2019-01-31T06:47:46.529Z,16.50
2019-01-31T06:50:14.338Z,57.40
2019-01-31T06:52:54.380Z,33.98
2019-01-31T06:55:22.270Z,16.25
2019-01-31T06:57:50.035Z,13.08
2019-01-31T07:00:20.258Z,21.48
2019-01-31T07:02:48.007Z,19.37
2019-01-31T07:05:21.844Z,18.37
2019-01-31T07:07:49.612Z,27.27
2019-01-31T07:10:22.889Z,35.68
2019-01-31T07:12:50.676Z,37.23
2019-01-31T07:15:18.489Z,31.90
2019-01-31T07:17:46.391Z,18.35
2019-01-31T07:20:15.062Z,6.30
2019-01-31T07:22:42.830Z,5.05
2019-01-31T07:25:15.551Z,14.10
2019-01-31T07:27:43.382Z,8.95
2019-01-31T07:30:12.286Z,15.45
2019-01-31T07:32:40.053Z,12.60
2019-01-31T07:35:10.491Z,15.60
2019-01-31T07:37:38.512Z,15.67
2019-01-31T07:40:08.221Z,11.70
2019-01-31T07:42:36.288Z,9.40
2019-01-31T07:45:06.725Z,8.93
2019-01-31T07:47:36.747Z,12.53
2019-01-31T07:50:05.889Z,11.83
2019-01-31T07:52:33.754Z,9.40
2019-01-31T07:55:02.201Z,7.30
2019-01-31T07:57:30.178Z,11.67
2019-01-31T08:00:11.920Z,7.87
2019-01-31T08:02:39.809Z,13.47
2019-01-31T08:05:11.698Z,71.87
2019-01-31T08:07:39.616Z,36.30
2019-01-31T08:10:12.749Z,12.00
2019-01-31T08:12:40.902Z,13.53
2019-01-31T08:15:10.441Z,13.87
2019-01-31T08:17:38.249Z,14.07
2019-01-31T08:20:06.572Z,12.83
2019-01-31T08:22:34.316Z,11.73
2019-01-31T08:25:02.151Z,12.73
2019-01-31T08:27:29.900Z,12.27
2019-01-31T08:29:57.841Z,12.47
2019-01-31T08:32:25.750Z,8.63
2019-01-31T08:34:53.564Z,13.27
2019-01-31T08:37:21.382Z,10.83
2019-01-31T08:39:54.391Z,17.40
2019-01-31T08:42:22.223Z,16.03
2019-01-31T08:44:50.042Z,14.67
2019-01-31T08:47:17.849Z,15.37
2019-01-31T08:49:45.776Z,12.07
2019-01-31T08:52:13.611Z,25.10
2019-01-31T08:54:41.520Z,14.37
2019-01-31T08:57:09.390Z,13.17
2019-01-31T09:00:13.752Z,13.67
2019-01-31T09:02:41.512Z,12.17
2019-01-31T09:05:09.605Z,8.83
2019-01-31T09:07:37.407Z,8.93
2019-01-31T09:10:09.288Z,8.27
2019-01-31T09:12:37.385Z,9.07
2019-01-31T09:15:05.317Z,10.27
2019-01-31T09:17:33.086Z,10.00
2019-01-31T09:20:00.906Z,8.30
2019-01-31T09:23:27.110Z,10.37
2019-01-31T09:27:03.931Z,6.67
2019-01-31T09:29:48.451Z,6.30
2019-01-31T09:33:33.214Z,8.27
2019-01-31T09:36:50.802Z,7.50
2019-01-31T09:40:08.874Z,12.90
2019-01-31T09:43:42.371Z,6.90
2019-01-31T09:46:51.007Z,17.40
2019-01-31T09:50:08.823Z,11.10
2019-01-31T09:53:40.124Z,9.37
2019-01-31T09:57:07.051Z,12.63
2019-01-31T10:00:40.437Z,13.93
2019-01-31T10:03:50.560Z,12.97
2019-01-31T10:06:35.131Z,19.50
2019-01-31T10:10:04.598Z,14.40
2019-01-31T10:13:18.369Z,12.90
2019-01-31T10:16:25.651Z,9.77
2019-01-31T10:19:56.961Z,8.63
2019-01-31T10:23:08.791Z,7.33
2019-01-31T10:26:44.099Z,5.30
2019-01-31T10:29:46.132Z,5.60
2019-01-31T10:32:51.205Z,7.00
2019-01-31T10:36:10.169Z,4.50
2019-01-31T10:39:53.242Z,5.60
2019-01-31T10:42:52.315Z,6.27
2019-01-31T10:46:04.719Z,4.83
2019-01-31T10:49:26.556Z,8.60
2019-01-31T10:52:46.689Z,5.40
2019-01-31T10:55:47.787Z,6.37
2019-01-31T10:59:03.297Z,5.80
2019-01-31T11:03:02.311Z,4.90
2019-01-31T11:06:18.215Z,5.80
2019-01-31T11:09:39.007Z,5.90
2019-01-31T11:13:10.779Z,10.10
2019-01-31T11:16:19.232Z,4.20
2019-01-31T11:19:53.360Z,5.77
2019-01-31T11:23:08.454Z,8.73
2019-01-31T11:26:35.653Z,5.33
2019-01-31T11:29:58.411Z,9.60
2019-01-31T11:33:11.911Z,6.47
2019-01-31T11:36:31.020Z,5.23
2019-01-31T11:40:24.059Z,5.30
2019-01-31T11:43:25.085Z,5.60
2019-01-31T11:46:36.396Z,5.17
2019-01-31T11:50:10.250Z,4.80
2019-01-31T11:53:43.794Z,5.90
2019-01-31T11:56:50.463Z,5.37
2019-01-31T11:59:18.348Z,16.33
2019-01-31T12:01:46.087Z,3.80
2019-01-31T12:04:16.818Z,5.57
2019-01-31T12:06:44.573Z,3.70
2019-01-31T12:09:21.305Z,3.50
2019-01-31T12:12:03.786Z,6.10
2019-01-31T12:14:31.553Z,5.00
2019-01-31T12:16:59.513Z,3.37
2019-01-31T12:19:27.613Z,4.87
2019-01-31T12:21:55.477Z,5.70
2019-01-31T12:24:23.260Z,5.03
2019-01-31T12:26:51.151Z,5.77
2019-01-31T12:29:18.926Z,3.93
2019-01-31T12:31:46.732Z,4.17
2019-01-31T12:34:14.889Z,5.70
2019-01-31T12:36:42.741Z,4.83
2019-01-31T12:39:11.042Z,5.20
2019-01-31T12:41:38.873Z,5.03
2019-01-31T12:44:07.336Z,4.57
2019-01-31T12:46:35.164Z,11.20
2019-01-31T12:49:03.159Z,5.70
2019-01-31T12:51:30.970Z,6.63
2019-01-31T12:53:58.738Z,7.23
2019-01-31T12:56:26.565Z,8.13
2019-01-31T12:58:54.308Z,8.27
2019-01-31T13:01:22.295Z,5.87
2019-01-31T13:03:50.077Z,3.93
2019-01-31T13:06:17.911Z,6.43
2019-01-31T13:08:45.915Z,5.07
2019-01-31T13:11:14.758Z,5.40
2019-01-31T13:13:46.033Z,9.83
2019-01-31T13:16:12.196Z,6.53
2019-01-31T13:18:50.241Z,4.87
2019-01-31T13:21:20.708Z,8.80
2019-01-31T13:23:47.734Z,4.33
2019-01-31T13:26:15.643Z,3.63
2019-01-31T13:28:43.415Z,4.20
2019-01-31T13:31:11.227Z,6.53
2019-01-31T13:33:39.825Z,4.57
2019-01-31T13:36:14.776Z,7.80
2019-01-31T13:38:42.582Z,7.33
2019-01-31T13:41:10.421Z,4.03
2019-01-31T13:43:38.206Z,5.17
2019-01-31T13:46:07.713Z,3.87
2019-01-31T13:48:35.563Z,3.50
2019-01-31T13:51:06.752Z,6.90
2019-01-31T13:53:34.714Z,5.20
2019-01-31T13:56:02.636Z,3.47
2019-01-31T13:58:30.580Z,3.97
2019-01-31T14:00:58.420Z,14.20
2019-01-31T14:03:26.176Z,4.10
2019-01-31T14:05:54.144Z,6.63
2019-01-31T14:08:22.259Z,12.27
2019-01-31T14:10:50.090Z,10.73
2019-01-31T14:13:17.914Z,5.17
2019-01-31T14:15:45.739Z,8.80
2019-01-31T14:18:13.505Z,6.03
2019-01-31T14:20:42.901Z,7.50
2019-01-31T14:23:10.736Z,11.97
2019-01-31T14:25:38.577Z,4.93
2019-01-31T14:28:11.592Z,3.67
2019-01-31T14:30:39.535Z,6.30
2019-01-31T14:33:16.822Z,6.10
2019-01-31T14:35:44.831Z,3.40
2019-01-31T14:38:12.700Z,4.00
2019-01-31T14:40:40.508Z,3.80
2019-01-31T14:43:08.396Z,4.10
2019-01-31T14:45:55.668Z,7.50
2019-01-31T14:48:51.205Z,2.60
2019-01-31T14:51:18.961Z,3.53
2019-01-31T14:53:46.845Z,4.27
2019-01-31T14:56:14.701Z,3.57
2019-01-31T14:58:47.772Z,7.20
2019-01-31T15:01:15.583Z,4.60
2019-01-31T15:03:43.428Z,5.27
2019-01-31T15:06:11.249Z,3.70
2019-01-31T15:08:39.111Z,4.03
2019-01-31T15:11:06.971Z,5.40
2019-01-31T15:13:34.789Z,3.27
2019-01-31T15:16:02.625Z,6.47
2019-01-31T15:18:30.499Z,5.27
2019-01-31T15:20:58.273Z,4.40
2019-01-31T15:23:26.120Z,7.30
2019-01-31T15:25:54.042Z,7.27
2019-01-31T15:28:21.844Z,4.13
2019-01-31T15:30:49.725Z,3.47
2019-01-31T15:33:18.685Z,4.17
2019-01-31T15:35:46.519Z,11.53
2019-01-31T15:38:14.502Z,11.37
2019-01-31T15:40:46.159Z,7.63
2019-01-31T15:43:14.148Z,3.63
2019-01-31T15:45:41.953Z,5.00
2019-01-31T15:48:10.831Z,3.87
2019-01-31T15:50:38.736Z,2.87
2019-01-31T15:53:06.674Z,3.33
2019-01-31T15:55:53.956Z,5.93
2019-01-31T15:58:22.085Z,2.37
2019-01-31T16:00:55.745Z,4.70
2019-01-31T16:03:25.346Z,6.17
2019-01-31T16:05:53.194Z,6.60
2019-01-31T16:08:21.373Z,16.13
2019-01-31T16:10:49.323Z,17.53
2019-01-31T16:13:17.151Z,20.73
2019-01-31T16:15:45.722Z,17.63
2019-01-31T16:18:14.049Z,31.90
2019-01-31T16:20:44.836Z,21.43
2019-01-31T16:23:13.852Z,13.20
2019-01-31T16:25:42.314Z,6.47
2019-01-31T16:28:10.187Z,5.70
2019-01-31T16:30:37.966Z,6.63
2019-01-31T16:33:06.150Z,8.27
2019-01-31T16:35:35.440Z,10.53
2019-01-31T16:38:04.053Z,8.43
2019-01-31T16:40:31.820Z,8.93
2019-01-31T16:42:59.635Z,7.13
2019-01-31T16:45:46.887Z,5.90
2019-01-31T16:48:14.841Z,6.07
2019-01-31T16:50:42.614Z,5.47
2019-01-31T16:53:10.487Z,7.13
2019-01-31T16:55:38.291Z,9.30
2019-01-31T16:58:07.158Z,9.57
2019-01-31T17:00:35.075Z,7.97
2019-01-31T17:03:05.217Z,11.27
2019-01-31T17:05:32.589Z,8.90
2019-01-31T17:08:00.682Z,5.57
2019-01-31T17:10:28.507Z,5.90
2019-01-31T17:12:56.341Z,4.00
2019-01-31T17:15:24.452Z,6.40
2019-01-31T17:17:52.316Z,8.10
2019-01-31T17:20:39.234Z,9.67
2019-01-31T17:23:07.100Z,7.90
2019-01-31T17:25:34.918Z,6.77
2019-01-31T17:28:22.204Z,11.57
2019-01-31T17:30:50.024Z,10.60
2019-01-31T17:33:17.895Z,7.30
2019-01-31T17:35:45.753Z,7.37
2019-01-31T17:38:13.668Z,8.87
2019-01-31T17:40:42.344Z,10.33
2019-01-31T17:43:11.781Z,7.63
2019-01-31T17:45:39.707Z,5.77
2019-01-31T17:48:10.938Z,9.70
2019-01-31T17:50:58.201Z,10.30
2019-01-31T17:53:26.106Z,22.27
2019-01-31T17:55:53.983Z,21.63
2019-01-31T17:58:21.959Z,12.70
2019-01-31T18:00:56.610Z,12.20
2019-01-31T18:03:25.102Z,17.97
2019-01-31T18:05:55.308Z,13.27
2019-01-31T18:08:28.399Z,13.57
2019-01-31T18:10:56.330Z,17.07
2019-01-31T18:13:27.368Z,12.37
2019-01-31T18:15:55.290Z,10.97
2019-01-31T18:18:23.160Z,9.13
2019-01-31T18:20:51.026Z,12.13
2019-01-31T18:23:18.863Z,15.77
2019-01-31T18:25:46.645Z,18.87
2019-01-31T18:28:14.483Z,14.03
2019-01-31T18:30:42.334Z,19.70
2019-01-31T18:33:13.173Z,16.07
2019-01-31T18:35:43.362Z,10.27
2019-01-31T18:38:11.201Z,12.93
2019-01-31T18:40:39.051Z,15.07
2019-01-31T18:43:06.948Z,14.20
2019-01-31T18:45:34.921Z,16.12
2019-01-31T18:48:07.823Z,16.27
2019-01-31T18:50:39.478Z,13.83
2019-01-31T18:53:07.475Z,10.95
2019-01-31T18:55:35.276Z,19.32
2019-01-31T18:58:03.822Z,14.03
2019-01-31T19:00:35.661Z,29.37
2019-01-31T19:03:03.967Z,26.17
2019-01-31T19:05:31.936Z,27.80
2019-01-31T19:08:00.011Z,26.30
2019-01-31T19:10:27.836Z,37.73
2019-01-31T19:12:55.763Z,32.85
2019-01-31T19:15:23.790Z,25.87
2019-01-31T19:17:51.797Z,14.33
2019-01-31T19:20:25.655Z,14.58
2019-01-31T19:22:57.637Z,21.68
2019-01-31T19:25:47.249Z,30.80
2019-01-31T19:28:15.206Z,23.30
2019-01-31T19:30:45.159Z,25.20
2019-01-31T19:33:13.256Z,20.37
2019-01-31T19:35:41.250Z,17.73
2019-01-31T19:38:09.738Z,17.30
2019-01-31T19:40:40.931Z,12.65
2019-01-31T19:43:08.831Z,11.73
2019-01-31T19:45:42.562Z,14.63
2019-01-31T19:48:10.892Z,15.65
2019-01-31T19:50:39.061Z,10.55
2019-01-31T19:53:08.341Z,15.53
2019-01-31T19:55:36.254Z,14.28
2019-01-31T19:58:05.035Z,15.68
2019-01-31T20:00:33.301Z,16.90
2019-01-31T20:03:01.270Z,19.90
2019-01-31T20:05:30.006Z,14.83
2019-01-31T20:07:57.932Z,18.48
2019-01-31T20:10:27.853Z,19.12
2019-01-31T20:12:55.891Z,29.00
2019-01-31T20:15:24.190Z,18.20
2019-01-31T20:17:52.015Z,15.55
2019-01-31T20:20:22.841Z,16.75
2019-01-31T20:22:52.638Z,17.57
2019-01-31T20:25:21.215Z,16.42
2019-01-31T20:27:49.586Z,21.48
2019-01-31T20:30:21.116Z,22.52
2019-01-31T20:32:49.141Z,21.68
2019-01-31T20:35:17.201Z,14.63
2019-01-31T20:37:45.079Z,19.95
2019-01-31T20:40:16.908Z,15.85
2019-01-31T20:42:44.923Z,26.52
2019-01-31T20:45:14.770Z,18.48
2019-01-31T20:47:42.746Z,20.57
2019-01-31T20:50:17.881Z,19.75
2019-01-31T20:52:46.033Z,16.65
2019-01-31T20:55:14.335Z,15.60
2019-01-31T20:57:42.342Z,12.33
2019-01-31T21:00:34.375Z,12.50
2019-01-31T21:03:03.617Z,14.95
2019-01-31T21:05:31.575Z,13.58
2019-01-31T21:07:59.455Z,14.55
2019-01-31T21:10:27.794Z,16.20
2019-01-31T21:12:55.718Z,14.47
2019-01-31T21:15:23.627Z,13.70
2019-01-31T21:17:51.409Z,12.07
2019-01-31T21:20:20.490Z,14.78
2019-01-31T21:22:48.459Z,16.17
2019-01-31T21:25:22.446Z,12.98
2019-01-31T21:27:55.958Z,17.23
2019-01-31T21:30:27.517Z,19.75
2019-01-31T21:32:55.405Z,25.20
2019-01-31T21:35:24.534Z,20.05
2019-01-31T21:37:52.314Z,19.35
2019-01-31T21:40:20.303Z,19.00
2019-01-31T21:42:48.116Z,17.70
2019-01-31T21:45:16.215Z,18.15
2019-01-31T21:47:44.001Z,21.48
2019-01-31T21:50:15.839Z,18.65
2019-01-31T21:52:43.692Z,18.70
2019-01-31T21:55:12.121Z,15.60
2019-01-31T21:57:39.939Z,15.10
2019-01-31T22:00:16.142Z,15.23
2019-01-31T22:02:44.060Z,16.12
2019-01-31T22:05:12.812Z,17.57
2019-01-31T22:07:40.666Z,16.25
2019-01-31T22:10:09.202Z,15.65
2019-01-31T22:12:36.989Z,14.50
2019-01-31T22:15:10.558Z,27.67
2019-01-31T22:17:39.717Z,17.77
2019-01-31T22:20:08.885Z,15.75
2019-01-31T22:22:36.686Z,12.80
2019-01-31T22:25:06.996Z,15.00
2019-01-31T22:27:34.776Z,13.40
2019-01-31T22:30:05.498Z,12.18
2019-01-31T22:32:52.538Z,12.63
2019-01-31T22:35:20.432Z,15.80
2019-01-31T22:37:48.263Z,13.78
2019-01-31T22:40:16.822Z,14.00
2019-01-31T22:42:44.693Z,15.00
2019-01-31T22:45:15.607Z,19.07
2019-01-31T22:47:44.032Z,17.32
2019-01-31T22:50:14.426Z,16.17
2019-01-31T22:52:42.206Z,14.13
2019-01-31T22:55:10.734Z,17.90
2019-01-31T22:57:38.513Z,14.18
2019-01-31T23:00:59.685Z,12.27
2019-01-31T23:03:27.474Z,14.40
2019-01-31T23:05:55.297Z,13.70
2019-01-31T23:08:23.385Z,8.18
2019-01-31T23:10:51.215Z,12.83
2019-01-31T23:13:18.967Z,7.47
2019-01-31T23:15:46.800Z,12.57
2019-01-31T23:18:29.829Z,13.37
2019-01-31T23:20:57.653Z,12.70
2019-01-31T23:23:25.512Z,10.93
2019-01-31T23:26:12.759Z,5.87
2019-01-31T23:28:50.726Z,9.30
2019-01-31T23:31:18.481Z,6.97
2019-01-31T23:33:46.763Z,8.57
2019-01-31T23:36:14.575Z,7.17
2019-01-31T23:38:42.355Z,7.40
2019-01-31T23:41:10.184Z,7.73
2019-01-31T23:43:37.978Z,7.60
2019-01-31T23:46:11.919Z,10.57
2019-01-31T23:48:39.691Z,8.37
2019-01-31T23:51:07.484Z,8.07
2019-01-31T23:53:35.368Z,12.60
2019-01-31T23:56:03.603Z,8.37
2019-01-31T23:58:31.494Z,8.73
